TimeCDT,TemperatureF,Dew PointF,Humidity,Sea Level PressureIn,VisibilityMPH,Wind Direction,Wind SpeedMPH,Gust SpeedMPH,PrecipitationIn,Events,Conditions,WindDirDegrees,DateUTC
12:58 AM,73.4,73.0,99,30.04,10.0,North,2.3,-,N/A,,Clear,350,2013-08-23 05:58:00
1:58 AM,72.0,71.6,99,30.02,10.0,NNE,2.3,-,N/A,,Clear,20,2013-08-23 06:58:00
2:58 AM,71.4,71.1,99,30.01,10.0,ENE,1.2,-,N/A,,Clear,60,2013-08-23 07:58:00
3:58 AM,71.4,71.2,99,30.01,10.0,ENE,4.6,-,N/A,,Clear,60,2013-08-23 08:58:00
4:58 AM,70.9,70.7,99,30.01,10.0,NE,4.6,-,N/A,,Clear,40,2013-08-23 09:58:00
5:58 AM,70.5,70.2,99,30.01,10.0,NE,3.5,-,N/A,,Clear,50,2013-08-23 10:58:00
6:58 AM,71.2,70.9,99,30.03,10.0,Variable,2.3,-,N/A,,Scattered Clouds,0,2013-08-23 11:58:00
7:58 AM,73.4,73.2,99,30.03,10.0,NE,6.9,-,N/A,,Clear,50,2013-08-23 12:58:00
8:55 AM,76.8,72.9,88,30.04,10.0,North,4.6,-,N/A,,Mostly Cloudy,10,2013-08-23 13:55:00
9:55 AM,78.3,74.1,87,30.04,10.0,North,6.9,-,N/A,,Mostly Cloudy,360,2013-08-23 14:55:00
10:55 AM,80.4,74.1,81,30.06,10.0,North,5.8,-,N/A,,Mostly Cloudy,350,2013-08-23 15:55:00
11:55 AM,82.8,72.9,72,30.04,10.0,NNE,5.8,-,N/A,,Mostly Cloudy,20,2013-08-23 16:55:00
12:55 PM,83.1,72.0,69,30.01,10.0,ENE,5.8,-,N/A,,Mostly Cloudy,60,2013-08-23 17:55:00
1:55 PM,82.8,71.8,69,30.03,10.0,ESE,4.6,-,N/A,,Mostly Cloudy,120,2013-08-23 18:55:00
2:55 PM,82.6,72.3,71,30.03,10.0,East,4.6,-,N/A,,Mostly Cloudy,90,2013-08-23 19:55:00
3:55 PM,82.4,73.6,75,30.01,10.0,ESE,4.6,-,N/A,,Mostly Cloudy,120,2013-08-23 20:55:00
4:18 PM,82.4,73.4,74,30.01,10.0,ESE,4.6,-,N/A,Rain-Thunderstorm,Light Thunderstorms and Rain,120,2013-08-23 21:18:00
4:29 PM,82.4,73.4,74,30.01,3.0,SSE,26.5,36.8,N/A,Rain-Thunderstorm,Light Thunderstorms and Rain,160,2013-08-23 21:29:00
4:32 PM,80.6,73.4,79,30.02,1.0,SSE,20.7,36.8,N/A,Rain-Thunderstorm,Thunderstorms and Rain,150,2013-08-23 21:32:00
4:44 PM,75.2,71.6,89,30.02,2.0,South,11.5,24.2,N/A,Rain-Thunderstorm,Light Thunderstorms and Rain,180,2013-08-23 21:44:00
4:55 PM,73.9,72.7,96,30.01,7.0,South,5.8,-,0.29,Rain-Thunderstorm,Light Thunderstorms and Rain,190,2013-08-23 21:55:00
5:15 PM,73.4,73.4,100,29.99,10.0,WSW,5.8,-,N/A,,Light Drizzle,240,2013-08-23 22:15:00
5:55 PM,73.8,73.4,99,29.97,10.0,North,4.6,-,0.01,,Mostly Cloudy,360,2013-08-23 22:55:00
6:55 PM,73.4,73.4,100,29.97,10.0,NE,5.8,-,N/A,,Mostly Cloudy,40,2013-08-23 23:55:00
7:55 PM,73.6,73.2,99,30.00,10.0,North,3.5,-,N/A,,Mostly Cloudy,360,2013-08-24 00:55:00
8:55 PM,73.2,72.9,99,30.01,10.0,ESE,5.8,-,N/A,,Mostly Cloudy,110,2013-08-24 01:55:00
9:55 PM,72.9,72.5,99,30.04,10.0,NE,4.6,-,N/A,,Mostly Cloudy,40,2013-08-24 02:55:00
10:55 PM,72.7,72.3,99,30.05,10.0,East,2.3,-,N/A,,Scattered Clouds,100,2013-08-24 03:55:00
11:55 PM,72.7,72.3,99,30.05,10.0,East,1.2,-,N/A,,Scattered Clouds,100,2013-08-24 04:55:00